sensor_id;sensor_type;location;lat;lon;timestamp;temperature;humidity
14614;DHT22;7393;51.446;6.800;2023-11-18T00:01:23;4.90;1.00
14614;DHT22;7393;51.446;6.800;2023-11-18T00:03:50;4.90;1.00
14614;DHT22;7393;51.446;6.800;2023-11-18T00:06:19;4.90;1.00
14614;DHT22;7393;51.446;6.800;2023-11-18T00:08:46;4.90;1.00
14614;DHT22;7393;51.446;6.800;2023-11-18T00:11:13;4.90;1.00
14614;DHT22;7393;51.446;6.800;2023-11-18T00:13:40;4.80;1.00
14614;DHT22;7393;51.446;6.800;2023-11-18T00:16:08;4.90;1.00
14614;DHT22;7393;51.446;6.800;2023-11-18T00:18:38;4.90;1.00
14614;DHT22;7393;51.446;6.800;2023-11-18T00:21:05;4.90;1.00
14614;DHT22;7393;51.446;6.800;2023-11-18T00:23:34;4.90;1.00
14614;DHT22;7393;51.446;6.800;2023-11-18T00:26:01;4.90;1.00
14614;DHT22;7393;51.446;6.800;2023-11-18T00:28:28;4.90;1.00
14614;DHT22;7393;51.446;6.800;2023-11-18T00:30:55;4.90;1.00
14614;DHT22;7393;51.446;6.800;2023-11-18T00:33:22;4.90;1.00
14614;DHT22;7393;51.446;6.800;2023-11-18T00:35:49;4.90;1.00
14614;DHT22;7393;51.446;6.800;2023-11-18T00:38:15;5.00;1.00
14614;DHT22;7393;51.446;6.800;2023-11-18T00:40:44;5.00;1.00
14614;DHT22;7393;51.446;6.800;2023-11-18T00:43:11;4.90;1.00
14614;DHT22;7393;51.446;6.800;2023-11-18T00:45:38;4.90;1.00
14614;DHT22;7393;51.446;6.800;2023-11-18T00:48:06;4.90;1.00
14614;DHT22;7393;51.446;6.800;2023-11-18T00:50:33;4.90;1.00
14614;DHT22;7393;51.446;6.800;2023-11-18T00:53:00;4.90;1.00
14614;DHT22;7393;51.446;6.800;2023-11-18T00:55:27;4.90;1.00
14614;DHT22;7393;51.446;6.800;2023-11-18T00:57:55;4.90;1.00
14614;DHT22;7393;51.446;6.800;2023-11-18T01:00:22;4.90;1.00
14614;DHT22;7393;51.446;6.800;2023-11-18T01:02:52;4.90;1.00
14614;DHT22;7393;51.446;6.800;2023-11-18T01:05:20;4.90;1.00
14614;DHT22;7393;51.446;6.800;2023-11-18T01:07:47;4.80;1.00
14614;DHT22;7393;51.446;6.800;2023-11-18T01:10:14;4.80;1.00
14614;DHT22;7393;51.446;6.800;2023-11-18T01:12:41;4.80;1.00
14614;DHT22;7393;51.446;6.800;2023-11-18T01:15:11;4.80;1.00
14614;DHT22;7393;51.446;6.800;2023-11-18T01:17:39;4.80;1.00
14614;DHT22;7393;51.446;6.800;2023-11-18T01:20:07;4.90;1.00
14614;DHT22;7393;51.446;6.800;2023-11-18T01:22:36;4.80;1.00
14614;DHT22;7393;51.446;6.800;2023-11-18T01:25:04;4.80;1.00
14614;DHT22;7393;51.446;6.800;2023-11-18T01:27:31;4.80;1.00
14614;DHT22;7393;51.446;6.800;2023-11-18T01:29:59;4.80;1.00
14614;DHT22;7393;51.446;6.800;2023-11-18T01:32:27;4.80;1.00
14614;DHT22;7393;51.446;6.800;2023-11-18T01:34:56;4.90;1.00
14614;DHT22;7393;51.446;6.800;2023-11-18T01:37:22;4.90;1.00
14614;DHT22;7393;51.446;6.800;2023-11-18T01:39:50;4.90;1.00
14614;DHT22;7393;51.446;6.800;2023-11-18T01:42:16;4.90;1.00
14614;DHT22;7393;51.446;6.800;2023-11-18T01:44:43;4.80;1.00
14614;DHT22;7393;51.446;6.800;2023-11-18T01:47:10;4.80;1.00
14614;DHT22;7393;51.446;6.800;2023-11-18T01:49:39;4.80;1.00
14614;DHT22;7393;51.446;6.800;2023-11-18T01:52:07;4.90;1.00
14614;DHT22;7393;51.446;6.800;2023-11-18T01:54:36;4.90;1.00
14614;DHT22;7393;51.446;6.800;2023-11-18T01:57:05;4.90;1.00
14614;DHT22;7393;51.446;6.800;2023-11-18T01:59:34;4.90;1.00
14614;DHT22;7393;51.446;6.800;2023-11-18T02:02:03;4.80;1.00
14614;DHT22;7393;51.446;6.800;2023-11-18T02:04:30;4.80;1.00
14614;DHT22;7393;51.446;6.800;2023-11-18T02:06:59;4.80;1.00
14614;DHT22;7393;51.446;6.800;2023-11-18T02:09:29;4.80;1.00
14614;DHT22;7393;51.446;6.800;2023-11-18T02:12:00;4.80;1.00
14614;DHT22;7393;51.446;6.800;2023-11-18T02:14:31;4.80;1.00
14614;DHT22;7393;51.446;6.800;2023-11-18T02:17:00;4.80;1.00
14614;DHT22;7393;51.446;6.800;2023-11-18T02:19:29;4.80;1.00
14614;DHT22;7393;51.446;6.800;2023-11-18T02:21:58;4.80;1.00
14614;DHT22;7393;51.446;6.800;2023-11-18T02:24:27;4.80;1.00
14614;DHT22;7393;51.446;6.800;2023-11-18T02:26:58;4.80;1.00
14614;DHT22;7393;51.446;6.800;2023-11-18T02:29:26;4.80;1.00
14614;DHT22;7393;51.446;6.800;2023-11-18T02:31:57;4.80;1.00
14614;DHT22;7393;51.446;6.800;2023-11-18T02:34:28;4.80;1.00
14614;DHT22;7393;51.446;6.800;2023-11-18T02:36:58;4.80;1.00
14614;DHT22;7393;51.446;6.800;2023-11-18T02:39:30;4.90;1.00
14614;DHT22;7393;51.446;6.800;2023-11-18T02:42:02;4.80;1.00
14614;DHT22;7393;51.446;6.800;2023-11-18T02:44:30;4.80;1.00
14614;DHT22;7393;51.446;6.800;2023-11-18T02:46:58;4.80;1.00
14614;DHT22;7393;51.446;6.800;2023-11-18T02:49:25;4.90;1.00
14614;DHT22;7393;51.446;6.800;2023-11-18T02:51:53;4.80;1.00
14614;DHT22;7393;51.446;6.800;2023-11-18T02:54:20;4.80;1.00
14614;DHT22;7393;51.446;6.800;2023-11-18T02:56:47;4.80;1.00
14614;DHT22;7393;51.446;6.800;2023-11-18T02:59:16;4.80;1.00
14614;DHT22;7393;51.446;6.800;2023-11-18T03:01:42;4.90;1.00
14614;DHT22;7393;51.446;6.800;2023-11-18T03:04:10;4.80;1.00
14614;DHT22;7393;51.446;6.800;2023-11-18T03:06:37;4.90;1.00
14614;DHT22;7393;51.446;6.800;2023-11-18T03:09:04;4.90;1.00
14614;DHT22;7393;51.446;6.800;2023-11-18T03:11:33;4.90;1.00
14614;DHT22;7393;51.446;6.800;2023-11-18T03:13:59;4.90;1.00
14614;DHT22;7393;51.446;6.800;2023-11-18T03:16:28;4.80;1.00
14614;DHT22;7393;51.446;6.800;2023-11-18T03:18:54;4.80;1.00
14614;DHT22;7393;51.446;6.800;2023-11-18T03:21:21;4.80;1.00
14614;DHT22;7393;51.446;6.800;2023-11-18T03:23:48;4.90;1.00
14614;DHT22;7393;51.446;6.800;2023-11-18T03:26:15;4.90;1.00
14614;DHT22;7393;51.446;6.800;2023-11-18T03:28:42;4.90;1.00
14614;DHT22;7393;51.446;6.800;2023-11-18T03:31:08;4.80;1.00
14614;DHT22;7393;51.446;6.800;2023-11-18T03:33:38;4.90;1.00
14614;DHT22;7393;51.446;6.800;2023-11-18T03:36:06;4.90;1.00
14614;DHT22;7393;51.446;6.800;2023-11-18T03:38:34;4.80;1.00
14614;DHT22;7393;51.446;6.800;2023-11-18T03:41:00;4.90;1.00
14614;DHT22;7393;51.446;6.800;2023-11-18T03:43:27;4.80;1.00
14614;DHT22;7393;51.446;6.800;2023-11-18T03:45:54;4.80;1.00
14614;DHT22;7393;51.446;6.800;2023-11-18T03:48:22;4.80;1.00
14614;DHT22;7393;51.446;6.800;2023-11-18T03:50:50;4.80;1.00
14614;DHT22;7393;51.446;6.800;2023-11-18T03:53:19;4.80;1.00
14614;DHT22;7393;51.446;6.800;2023-11-18T03:55:46;4.80;1.00
14614;DHT22;7393;51.446;6.800;2023-11-18T03:58:12;4.80;1.00
14614;DHT22;7393;51.446;6.800;2023-11-18T04:00:39;4.70;1.00
14614;DHT22;7393;51.446;6.800;2023-11-18T04:03:06;4.80;1.00
14614;DHT22;7393;51.446;6.800;2023-11-18T04:05:34;4.70;1.00
14614;DHT22;7393;51.446;6.800;2023-11-18T04:08:05;4.70;1.00
14614;DHT22;7393;51.446;6.800;2023-11-18T04:10:33;4.70;1.00
14614;DHT22;7393;51.446;6.800;2023-11-18T04:12:59;4.70;1.00
14614;DHT22;7393;51.446;6.800;2023-11-18T04:15:26;4.70;1.00
14614;DHT22;7393;51.446;6.800;2023-11-18T04:17:53;4.70;1.00
14614;DHT22;7393;51.446;6.800;2023-11-18T04:20:20;4.80;1.00
14614;DHT22;7393;51.446;6.800;2023-11-18T04:22:47;4.80;1.00
14614;DHT22;7393;51.446;6.800;2023-11-18T04:25:15;4.80;1.00
14614;DHT22;7393;51.446;6.800;2023-11-18T04:27:42;4.80;1.00
14614;DHT22;7393;51.446;6.800;2023-11-18T04:30:10;4.80;1.00
14614;DHT22;7393;51.446;6.800;2023-11-18T04:32:38;4.80;1.00
14614;DHT22;7393;51.446;6.800;2023-11-18T04:35:08;4.80;1.00
14614;DHT22;7393;51.446;6.800;2023-11-18T04:37:37;4.80;1.00
14614;DHT22;7393;51.446;6.800;2023-11-18T04:40:08;4.80;1.00
14614;DHT22;7393;51.446;6.800;2023-11-18T04:42:38;4.80;1.00
14614;DHT22;7393;51.446;6.800;2023-11-18T04:45:05;4.80;1.00
14614;DHT22;7393;51.446;6.800;2023-11-18T04:47:35;4.80;1.00
14614;DHT22;7393;51.446;6.800;2023-11-18T04:50:02;4.80;1.00
14614;DHT22;7393;51.446;6.800;2023-11-18T04:52:29;4.80;1.00
14614;DHT22;7393;51.446;6.800;2023-11-18T04:54:58;4.80;1.00
14614;DHT22;7393;51.446;6.800;2023-11-18T04:57:25;4.80;1.00
14614;DHT22;7393;51.446;6.800;2023-11-18T04:59:54;4.80;1.00
14614;DHT22;7393;51.446;6.800;2023-11-18T05:02:21;4.80;1.00
14614;DHT22;7393;51.446;6.800;2023-11-18T05:04:48;4.80;1.00
14614;DHT22;7393;51.446;6.800;2023-11-18T05:07:15;4.80;1.00
14614;DHT22;7393;51.446;6.800;2023-11-18T05:09:42;4.80;1.00
14614;DHT22;7393;51.446;6.800;2023-11-18T05:12:09;4.80;1.00
14614;DHT22;7393;51.446;6.800;2023-11-18T05:14:36;4.80;1.00
14614;DHT22;7393;51.446;6.800;2023-11-18T05:17:05;4.90;1.00
14614;DHT22;7393;51.446;6.800;2023-11-18T05:19:32;4.90;1.00
14614;DHT22;7393;51.446;6.800;2023-11-18T05:21:59;4.90;1.00
14614;DHT22;7393;51.446;6.800;2023-11-18T05:24:26;4.80;1.00
14614;DHT22;7393;51.446;6.800;2023-11-18T05:26:53;4.90;1.00
14614;DHT22;7393;51.446;6.800;2023-11-18T05:29:20;4.90;1.00
14614;DHT22;7393;51.446;6.800;2023-11-18T05:31:46;4.90;1.00
14614;DHT22;7393;51.446;6.800;2023-11-18T05:34:15;4.90;1.00
14614;DHT22;7393;51.446;6.800;2023-11-18T05:36:44;4.90;1.00
14614;DHT22;7393;51.446;6.800;2023-11-18T05:39:12;4.90;1.00
14614;DHT22;7393;51.446;6.800;2023-11-18T05:41:40;4.90;1.00
14614;DHT22;7393;51.446;6.800;2023-11-18T05:44:10;4.90;1.00
14614;DHT22;7393;51.446;6.800;2023-11-18T05:46:43;5.00;1.00
14614;DHT22;7393;51.446;6.800;2023-11-18T05:49:12;5.00;1.00
14614;DHT22;7393;51.446;6.800;2023-11-18T05:51:40;5.00;1.00
14614;DHT22;7393;51.446;6.800;2023-11-18T05:54:07;5.00;1.00
14614;DHT22;7393;51.446;6.800;2023-11-18T05:56:34;5.00;1.00
14614;DHT22;7393;51.446;6.800;2023-11-18T05:59:02;5.00;1.00
14614;DHT22;7393;51.446;6.800;2023-11-18T06:01:29;5.10;1.00
14614;DHT22;7393;51.446;6.800;2023-11-18T06:03:57;5.10;1.00
14614;DHT22;7393;51.446;6.800;2023-11-18T06:06:24;5.10;1.00
14614;DHT22;7393;51.446;6.800;2023-11-18T06:08:53;5.10;1.00
14614;DHT22;7393;51.446;6.800;2023-11-18T06:11:20;5.20;1.00
14614;DHT22;7393;51.446;6.800;2023-11-18T06:13:49;5.10;1.00
14614;DHT22;7393;51.446;6.800;2023-11-18T06:16:18;5.20;1.00
14614;DHT22;7393;51.446;6.800;2023-11-18T06:18:48;5.20;1.00
14614;DHT22;7393;51.446;6.800;2023-11-18T06:21:16;5.20;1.00
14614;DHT22;7393;51.446;6.800;2023-11-18T06:23:44;5.20;1.00
14614;DHT22;7393;51.446;6.800;2023-11-18T06:26:14;5.20;1.00
14614;DHT22;7393;51.446;6.800;2023-11-18T06:28:42;5.20;1.00
14614;DHT22;7393;51.446;6.800;2023-11-18T06:31:09;5.20;1.00
14614;DHT22;7393;51.446;6.800;2023-11-18T06:33:38;5.20;1.00
14614;DHT22;7393;51.446;6.800;2023-11-18T06:36:08;5.20;1.00
14614;DHT22;7393;51.446;6.800;2023-11-18T06:38:36;5.20;1.00
14614;DHT22;7393;51.446;6.800;2023-11-18T06:41:04;5.20;1.00
14614;DHT22;7393;51.446;6.800;2023-11-18T06:43:36;5.20;1.00
14614;DHT22;7393;51.446;6.800;2023-11-18T06:46:17;5.30;1.00
14614;DHT22;7393;51.446;6.800;2023-11-18T06:48:46;5.30;1.00
14614;DHT22;7393;51.446;6.800;2023-11-18T06:51:13;5.40;1.00
14614;DHT22;7393;51.446;6.800;2023-11-18T06:53:40;5.30;1.00
14614;DHT22;7393;51.446;6.800;2023-11-18T06:56:07;5.40;1.00
14614;DHT22;7393;51.446;6.800;2023-11-18T06:58:38;5.30;1.00
14614;DHT22;7393;51.446;6.800;2023-11-18T07:01:05;5.30;1.00
14614;DHT22;7393;51.446;6.800;2023-11-18T07:03:32;5.40;1.00
14614;DHT22;7393;51.446;6.800;2023-11-18T07:05:59;5.40;1.00
14614;DHT22;7393;51.446;6.800;2023-11-18T07:08:25;5.40;1.00
14614;DHT22;7393;51.446;6.800;2023-11-18T07:10:51;5.40;1.00
14614;DHT22;7393;51.446;6.800;2023-11-18T07:13:18;5.40;1.00
14614;DHT22;7393;51.446;6.800;2023-11-18T07:15:50;5.50;1.00
14614;DHT22;7393;51.446;6.800;2023-11-18T07:18:17;5.50;1.00
14614;DHT22;7393;51.446;6.800;2023-11-18T07:20:47;5.50;1.00
14614;DHT22;7393;51.446;6.800;2023-11-18T07:23:14;5.50;1.00
14614;DHT22;7393;51.446;6.800;2023-11-18T07:25:43;5.50;1.00
14614;DHT22;7393;51.446;6.800;2023-11-18T07:28:09;5.50;1.00
14614;DHT22;7393;51.446;6.800;2023-11-18T07:30:36;5.50;1.00
14614;DHT22;7393;51.446;6.800;2023-11-18T07:33:04;5.60;1.00
14614;DHT22;7393;51.446;6.800;2023-11-18T07:35:34;5.60;1.00
14614;DHT22;7393;51.446;6.800;2023-11-18T07:38:02;5.60;1.00
14614;DHT22;7393;51.446;6.800;2023-11-18T07:40:29;5.60;1.00
14614;DHT22;7393;51.446;6.800;2023-11-18T07:42:55;5.70;1.00
14614;DHT22;7393;51.446;6.800;2023-11-18T07:45:22;5.70;1.00
14614;DHT22;7393;51.446;6.800;2023-11-18T07:47:49;5.70;1.00
14614;DHT22;7393;51.446;6.800;2023-11-18T07:50:18;5.70;1.00
14614;DHT22;7393;51.446;6.800;2023-11-18T07:52:46;5.80;1.00
14614;DHT22;7393;51.446;6.800;2023-11-18T07:55:13;5.80;1.00
14614;DHT22;7393;51.446;6.800;2023-11-18T07:57:40;5.70;1.00
14614;DHT22;7393;51.446;6.800;2023-11-18T08:00:08;5.80;1.00
14614;DHT22;7393;51.446;6.800;2023-11-18T08:02:35;5.80;1.00
14614;DHT22;7393;51.446;6.800;2023-11-18T08:05:03;5.80;1.00
14614;DHT22;7393;51.446;6.800;2023-11-18T08:07:34;5.80;1.00
14614;DHT22;7393;51.446;6.800;2023-11-18T08:10:01;5.90;1.00
14614;DHT22;7393;51.446;6.800;2023-11-18T08:12:29;5.80;1.00
14614;DHT22;7393;51.446;6.800;2023-11-18T08:14:56;5.80;1.00
14614;DHT22;7393;51.446;6.800;2023-11-18T08:17:24;5.90;1.00
14614;DHT22;7393;51.446;6.800;2023-11-18T08:19:52;5.90;1.00
14614;DHT22;7393;51.446;6.800;2023-11-18T08:22:19;5.90;1.00
14614;DHT22;7393;51.446;6.800;2023-11-18T08:24:49;5.90;1.00
14614;DHT22;7393;51.446;6.800;2023-11-18T08:27:17;6.00;1.00
14614;DHT22;7393;51.446;6.800;2023-11-18T08:29:44;6.10;1.00
14614;DHT22;7393;51.446;6.800;2023-11-18T08:32:14;6.00;1.00
14614;DHT22;7393;51.446;6.800;2023-11-18T08:34:40;6.10;1.00
14614;DHT22;7393;51.446;6.800;2023-11-18T08:37:07;6.10;1.00
14614;DHT22;7393;51.446;6.800;2023-11-18T08:39:34;6.20;1.00
14614;DHT22;7393;51.446;6.800;2023-11-18T08:42:03;6.20;1.00
14614;DHT22;7393;51.446;6.800;2023-11-18T08:44:33;6.20;1.00
14614;DHT22;7393;51.446;6.800;2023-11-18T08:46:59;6.30;1.00
14614;DHT22;7393;51.446;6.800;2023-11-18T08:49:31;6.20;1.00
14614;DHT22;7393;51.446;6.800;2023-11-18T08:51:59;6.30;1.00
14614;DHT22;7393;51.446;6.800;2023-11-18T08:54:27;6.30;1.00
14614;DHT22;7393;51.446;6.800;2023-11-18T08:57:04;6.30;1.00
14614;DHT22;7393;51.446;6.800;2023-11-18T08:59:45;6.30;1.00
14614;DHT22;7393;51.446;6.800;2023-11-18T09:02:12;6.30;1.00
14614;DHT22;7393;51.446;6.800;2023-11-18T09:04:40;6.30;1.00
14614;DHT22;7393;51.446;6.800;2023-11-18T09:07:09;6.40;1.00
14614;DHT22;7393;51.446;6.800;2023-11-18T09:09:36;6.40;1.00
14614;DHT22;7393;51.446;6.800;2023-11-18T09:12:05;6.40;1.00
14614;DHT22;7393;51.446;6.800;2023-11-18T09:14:33;6.40;1.00
14614;DHT22;7393;51.446;6.800;2023-11-18T09:17:00;6.50;1.00
14614;DHT22;7393;51.446;6.800;2023-11-18T09:19:27;6.50;1.00
14614;DHT22;7393;51.446;6.800;2023-11-18T09:21:55;6.50;1.00
14614;DHT22;7393;51.446;6.800;2023-11-18T09:24:22;6.50;1.00
14614;DHT22;7393;51.446;6.800;2023-11-18T09:26:50;6.60;1.00
14614;DHT22;7393;51.446;6.800;2023-11-18T09:29:18;6.60;1.00
14614;DHT22;7393;51.446;6.800;2023-11-18T09:31:49;6.60;1.00
14614;DHT22;7393;51.446;6.800;2023-11-18T09:34:18;6.60;1.00
14614;DHT22;7393;51.446;6.800;2023-11-18T09:36:52;6.70;1.00
14614;DHT22;7393;51.446;6.800;2023-11-18T09:39:19;6.70;1.00
14614;DHT22;7393;51.446;6.800;2023-11-18T09:42:04;6.70;1.00
14614;DHT22;7393;51.446;6.800;2023-11-18T09:44:36;6.70;1.00
14614;DHT22;7393;51.446;6.800;2023-11-18T09:47:07;6.70;1.00
14614;DHT22;7393;51.446;6.800;2023-11-18T09:49:41;6.80;1.00
14614;DHT22;7393;51.446;6.800;2023-11-18T09:52:15;6.80;1.00
14614;DHT22;7393;51.446;6.800;2023-11-18T09:54:49;6.90;1.00
14614;DHT22;7393;51.446;6.800;2023-11-18T09:57:26;6.90;1.00
14614;DHT22;7393;51.446;6.800;2023-11-18T10:00:00;6.90;1.00
14614;DHT22;7393;51.446;6.800;2023-11-18T10:02:38;6.90;1.00
14614;DHT22;7393;51.446;6.800;2023-11-18T10:05:07;6.90;1.00
14614;DHT22;7393;51.446;6.800;2023-11-18T10:07:38;6.90;1.00
14614;DHT22;7393;51.446;6.800;2023-11-18T10:10:07;7.00;1.00
14614;DHT22;7393;51.446;6.800;2023-11-18T10:12:40;7.00;1.00
14614;DHT22;7393;51.446;6.800;2023-11-18T10:15:12;7.00;1.00
14614;DHT22;7393;51.446;6.800;2023-11-18T10:17:41;7.00;1.00
14614;DHT22;7393;51.446;6.800;2023-11-18T10:20:21;7.10;1.00
14614;DHT22;7393;51.446;6.800;2023-11-18T10:23:06;7.20;1.00
14614;DHT22;7393;51.446;6.800;2023-11-18T10:25:35;7.20;1.00
14614;DHT22;7393;51.446;6.800;2023-11-18T10:28:23;7.20;1.00
14614;DHT22;7393;51.446;6.800;2023-11-18T10:30:54;7.20;1.00
14614;DHT22;7393;51.446;6.800;2023-11-18T10:33:24;7.30;1.00
14614;DHT22;7393;51.446;6.800;2023-11-18T10:35:56;7.30;1.00
14614;DHT22;7393;51.446;6.800;2023-11-18T10:38:23;7.30;1.00
14614;DHT22;7393;51.446;6.800;2023-11-18T10:40:55;7.40;1.00
14614;DHT22;7393;51.446;6.800;2023-11-18T10:43:23;7.40;1.00
14614;DHT22;7393;51.446;6.800;2023-11-18T10:45:52;7.40;1.00
14614;DHT22;7393;51.446;6.800;2023-11-18T10:48:20;7.50;1.00
14614;DHT22;7393;51.446;6.800;2023-11-18T10:50:47;7.50;1.00
14614;DHT22;7393;51.446;6.800;2023-11-18T10:53:18;7.50;1.00
14614;DHT22;7393;51.446;6.800;2023-11-18T10:55:44;7.60;1.00
14614;DHT22;7393;51.446;6.800;2023-11-18T10:58:12;7.60;1.00
14614;DHT22;7393;51.446;6.800;2023-11-18T11:00:47;7.70;1.00
14614;DHT22;7393;51.446;6.800;2023-11-18T11:03:15;7.70;1.00
14614;DHT22;7393;51.446;6.800;2023-11-18T11:05:43;7.70;1.00
14614;DHT22;7393;51.446;6.800;2023-11-18T11:08:13;7.70;1.00
14614;DHT22;7393;51.446;6.800;2023-11-18T11:10:41;7.70;1.00
14614;DHT22;7393;51.446;6.800;2023-11-18T11:13:09;7.60;1.00
14614;DHT22;7393;51.446;6.800;2023-11-18T11:15:42;7.70;1.00
14614;DHT22;7393;51.446;6.800;2023-11-18T11:18:12;7.70;1.00
14614;DHT22;7393;51.446;6.800;2023-11-18T11:20:51;7.80;1.00
14614;DHT22;7393;51.446;6.800;2023-11-18T11:23:25;7.70;1.00
14614;DHT22;7393;51.446;6.800;2023-11-18T11:26:02;7.80;1.00
14614;DHT22;7393;51.446;6.800;2023-11-18T11:28:40;7.70;1.00
14614;DHT22;7393;51.446;6.800;2023-11-18T11:31:12;7.70;1.00
14614;DHT22;7393;51.446;6.800;2023-11-18T11:33:49;7.70;1.00
14614;DHT22;7393;51.446;6.800;2023-11-18T11:36:28;7.70;1.00
14614;DHT22;7393;51.446;6.800;2023-11-18T11:38:57;7.70;1.00
14614;DHT22;7393;51.446;6.800;2023-11-18T11:41:27;7.70;1.00
14614;DHT22;7393;51.446;6.800;2023-11-18T11:43:55;7.70;1.00
14614;DHT22;7393;51.446;6.800;2023-11-18T11:46:24;7.80;1.00
14614;DHT22;7393;51.446;6.800;2023-11-18T11:48:58;7.80;1.00
14614;DHT22;7393;51.446;6.800;2023-11-18T11:51:32;7.80;1.00
14614;DHT22;7393;51.446;6.800;2023-11-18T11:54:06;7.80;1.00
14614;DHT22;7393;51.446;6.800;2023-11-18T11:56:42;7.80;1.00
14614;DHT22;7393;51.446;6.800;2023-11-18T11:59:11;7.80;1.00
14614;DHT22;7393;51.446;6.800;2023-11-18T12:01:38;7.90;1.00
14614;DHT22;7393;51.446;6.800;2023-11-18T12:04:12;7.80;1.00
14614;DHT22;7393;51.446;6.800;2023-11-18T12:06:48;7.90;1.00
14614;DHT22;7393;51.446;6.800;2023-11-18T12:09:19;7.90;1.00
14614;DHT22;7393;51.446;6.800;2023-11-18T12:11:47;7.90;1.00
14614;DHT22;7393;51.446;6.800;2023-11-18T12:14:16;7.90;1.00
14614;DHT22;7393;51.446;6.800;2023-11-18T12:17:07;8.00;1.00
14614;DHT22;7393;51.446;6.800;2023-11-18T12:19:36;8.00;1.00
14614;DHT22;7393;51.446;6.800;2023-11-18T12:22:12;8.00;1.00
14614;DHT22;7393;51.446;6.800;2023-11-18T12:24:46;8.00;1.00
14614;DHT22;7393;51.446;6.800;2023-11-18T12:27:42;8.00;1.00
14614;DHT22;7393;51.446;6.800;2023-11-18T12:30:37;8.00;1.00
14614;DHT22;7393;51.446;6.800;2023-11-18T12:33:07;8.00;1.00
14614;DHT22;7393;51.446;6.800;2023-11-18T12:35:42;7.90;1.00
14614;DHT22;7393;51.446;6.800;2023-11-18T12:38:36;7.90;1.00
14614;DHT22;7393;51.446;6.800;2023-11-18T12:41:23;7.90;1.00
14614;DHT22;7393;51.446;6.800;2023-11-18T12:44:10;7.90;1.00
14614;DHT22;7393;51.446;6.800;2023-11-18T12:46:50;7.90;1.00
14614;DHT22;7393;51.446;6.800;2023-11-18T12:49:19;7.90;1.00
14614;DHT22;7393;51.446;6.800;2023-11-18T12:51:49;7.90;1.00
14614;DHT22;7393;51.446;6.800;2023-11-18T12:54:17;7.90;1.00
14614;DHT22;7393;51.446;6.800;2023-11-18T12:56:45;7.90;1.00
14614;DHT22;7393;51.446;6.800;2023-11-18T12:59:15;7.90;1.00
14614;DHT22;7393;51.446;6.800;2023-11-18T13:01:44;7.80;1.00
14614;DHT22;7393;51.446;6.800;2023-11-18T13:04:16;7.90;1.00
14614;DHT22;7393;51.446;6.800;2023-11-18T13:06:45;7.90;1.00
14614;DHT22;7393;51.446;6.800;2023-11-18T13:09:14;7.90;1.00
14614;DHT22;7393;51.446;6.800;2023-11-18T13:11:56;7.90;1.00
14614;DHT22;7393;51.446;6.800;2023-11-18T13:14:24;7.90;1.00
14614;DHT22;7393;51.446;6.800;2023-11-18T13:16:52;7.90;1.00
14614;DHT22;7393;51.446;6.800;2023-11-18T13:19:26;7.90;1.00
14614;DHT22;7393;51.446;6.800;2023-11-18T13:21:57;8.00;1.00
14614;DHT22;7393;51.446;6.800;2023-11-18T13:24:25;7.90;1.00
14614;DHT22;7393;51.446;6.800;2023-11-18T13:26:55;7.90;1.00
14614;DHT22;7393;51.446;6.800;2023-11-18T13:29:23;7.90;1.00
14614;DHT22;7393;51.446;6.800;2023-11-18T13:31:50;8.00;1.00
14614;DHT22;7393;51.446;6.800;2023-11-18T13:34:17;7.90;1.00
14614;DHT22;7393;51.446;6.800;2023-11-18T13:36:44;7.90;1.00
14614;DHT22;7393;51.446;6.800;2023-11-18T13:39:16;7.90;1.00
14614;DHT22;7393;51.446;6.800;2023-11-18T13:41:43;8.00;1.00
14614;DHT22;7393;51.446;6.800;2023-11-18T13:44:12;7.90;1.00
14614;DHT22;7393;51.446;6.800;2023-11-18T13:46:39;8.00;1.00
14614;DHT22;7393;51.446;6.800;2023-11-18T13:49:08;8.00;1.00
14614;DHT22;7393;51.446;6.800;2023-11-18T13:51:35;8.00;1.00
14614;DHT22;7393;51.446;6.800;2023-11-18T13:54:03;8.10;1.00
14614;DHT22;7393;51.446;6.800;2023-11-18T13:56:30;8.10;1.00
14614;DHT22;7393;51.446;6.800;2023-11-18T13:58:58;8.10;1.00
14614;DHT22;7393;51.446;6.800;2023-11-18T14:01:26;8.10;1.00
14614;DHT22;7393;51.446;6.800;2023-11-18T14:03:54;8.10;1.00
14614;DHT22;7393;51.446;6.800;2023-11-18T14:06:27;8.00;1.00
14614;DHT22;7393;51.446;6.800;2023-11-18T14:08:54;8.10;1.00
14614;DHT22;7393;51.446;6.800;2023-11-18T14:11:20;8.10;1.00
14614;DHT22;7393;51.446;6.800;2023-11-18T14:13:47;8.10;1.00
14614;DHT22;7393;51.446;6.800;2023-11-18T14:16:14;8.10;1.00
14614;DHT22;7393;51.446;6.800;2023-11-18T14:18:43;8.10;1.00
14614;DHT22;7393;51.446;6.800;2023-11-18T14:21:11;8.10;1.00
14614;DHT22;7393;51.446;6.800;2023-11-18T14:23:39;8.10;1.00
14614;DHT22;7393;51.446;6.800;2023-11-18T14:26:07;8.10;1.00
14614;DHT22;7393;51.446;6.800;2023-11-18T14:28:34;8.10;1.00
14614;DHT22;7393;51.446;6.800;2023-11-18T14:31:01;8.00;1.00
14614;DHT22;7393;51.446;6.800;2023-11-18T14:33:29;8.00;1.00
14614;DHT22;7393;51.446;6.800;2023-11-18T14:36:00;8.00;1.00
14614;DHT22;7393;51.446;6.800;2023-11-18T14:38:27;8.10;1.00
14614;DHT22;7393;51.446;6.800;2023-11-18T14:40:54;8.00;1.00
14614;DHT22;7393;51.446;6.800;2023-11-18T14:43:21;8.00;1.00
14614;DHT22;7393;51.446;6.800;2023-11-18T14:45:47;8.00;1.00
14614;DHT22;7393;51.446;6.800;2023-11-18T14:48:15;8.00;1.00
14614;DHT22;7393;51.446;6.800;2023-11-18T14:50:42;8.00;1.00
14614;DHT22;7393;51.446;6.800;2023-11-18T14:53:11;8.00;1.00
14614;DHT22;7393;51.446;6.800;2023-11-18T14:55:39;8.00;1.00
14614;DHT22;7393;51.446;6.800;2023-11-18T14:58:06;7.90;1.00
14614;DHT22;7393;51.446;6.800;2023-11-18T15:00:32;7.90;1.00
14614;DHT22;7393;51.446;6.800;2023-11-18T15:03:00;7.90;1.00
14614;DHT22;7393;51.446;6.800;2023-11-18T15:05:26;7.90;1.00
14614;DHT22;7393;51.446;6.800;2023-11-18T15:07:54;7.90;1.00
14614;DHT22;7393;51.446;6.800;2023-11-18T15:10:24;7.90;1.00
14614;DHT22;7393;51.446;6.800;2023-11-18T15:12:51;7.90;1.00
14614;DHT22;7393;51.446;6.800;2023-11-18T15:15:20;7.90;1.00
14614;DHT22;7393;51.446;6.800;2023-11-18T15:17:48;7.90;1.00
14614;DHT22;7393;51.446;6.800;2023-11-18T15:20:15;7.90;1.00
14614;DHT22;7393;51.446;6.800;2023-11-18T15:22:44;7.90;1.00
14614;DHT22;7393;51.446;6.800;2023-11-18T15:25:12;7.90;1.00
14614;DHT22;7393;51.446;6.800;2023-11-18T15:27:44;7.90;1.00
14614;DHT22;7393;51.446;6.800;2023-11-18T15:30:12;7.90;1.00
14614;DHT22;7393;51.446;6.800;2023-11-18T15:32:39;8.00;1.00
14614;DHT22;7393;51.446;6.800;2023-11-18T15:35:07;7.90;1.00
14614;DHT22;7393;51.446;6.800;2023-11-18T15:37:36;7.90;1.00
14614;DHT22;7393;51.446;6.800;2023-11-18T15:40:05;7.90;1.00
14614;DHT22;7393;51.446;6.800;2023-11-18T15:42:37;7.90;1.00
14614;DHT22;7393;51.446;6.800;2023-11-18T15:45:08;7.90;1.00
14614;DHT22;7393;51.446;6.800;2023-11-18T15:47:36;7.90;1.00
14614;DHT22;7393;51.446;6.800;2023-11-18T15:50:05;7.90;1.00
14614;DHT22;7393;51.446;6.800;2023-11-18T15:52:33;7.90;1.00
14614;DHT22;7393;51.446;6.800;2023-11-18T15:55:01;7.90;1.00
14614;DHT22;7393;51.446;6.800;2023-11-18T15:57:27;7.90;1.00
14614;DHT22;7393;51.446;6.800;2023-11-18T15:59:54;7.90;1.00
14614;DHT22;7393;51.446;6.800;2023-11-18T16:02:22;7.90;1.00
14614;DHT22;7393;51.446;6.800;2023-11-18T16:04:50;7.90;1.00
14614;DHT22;7393;51.446;6.800;2023-11-18T16:07:17;7.90;1.00
14614;DHT22;7393;51.446;6.800;2023-11-18T16:09:44;7.90;1.00
14614;DHT22;7393;51.446;6.800;2023-11-18T16:12:11;7.90;1.00
14614;DHT22;7393;51.446;6.800;2023-11-18T16:14:38;8.00;1.00
14614;DHT22;7393;51.446;6.800;2023-11-18T16:17:05;7.90;1.00
14614;DHT22;7393;51.446;6.800;2023-11-18T16:19:34;8.00;1.00
14614;DHT22;7393;51.446;6.800;2023-11-18T16:22:02;7.90;1.00
14614;DHT22;7393;51.446;6.800;2023-11-18T16:24:29;8.00;2.40
14614;DHT22;7393;51.446;6.800;2023-11-18T16:26:57;8.00;1.20
14614;DHT22;7393;51.446;6.800;2023-11-18T16:29:23;8.00;1.00